Time;durP1;ratioP1;P1;durP2;ratioP2;P2;SDS_P1;SDS_P2;PMS_P1;PMS_P2;Temp;Humidity;BMP_temperature;BMP_pressure;BME280_temperature;BME280_humidity;BME280_pressure;Samples;Min_cycle;Max_cycle;Signal;HPM_P1;HPM_P2
2022/07/11 00:00:09;;;;;;;5.75;3.20;;;;;;;12.39;75.89;100216.93;1688991;84;27326;-67
2022/07/11 00:02:39;;;;;;;6.87;3.65;;;;;;;12.36;75.79;100213.50;1688977;85;25432;-67
2022/07/11 00:05:09;;;;;;;3.37;2.92;;;;;;;12.32;76.01;100214.14;1689004;84;25430;-67
2022/07/11 00:07:35;;;;;;;;;;;;;;;12.30;76.01;100210.17;1691502;85;25840;-67
2022/07/11 00:10:04;;;;;;;3.33;2.67;;;;;;;12.27;76.10;100208.09;1689044;85;25636;-68
2022/07/11 00:12:30;;;;;;;8.80;3.10;;;;;;;12.22;76.23;100204.98;1688984;84;27413;-67
2022/07/11 00:14:57;;;;;;;6.28;3.12;;;;;;;12.20;76.23;100208.59;1688917;85;25470;-67
2022/07/11 00:17:24;;;;;;;4.17;2.85;;;;;;;12.17;76.37;100203.02;1689024;85;25581;-67
2022/07/11 00:19:50;;;;;;;4.55;2.95;;;;;;;12.15;76.11;100203.33;1688994;85;25578;-68
2022/07/11 00:22:16;;;;;;;3.90;2.80;;;;;;;12.12;76.11;100201.26;1689058;84;25422;-68
2022/07/11 00:24:43;;;;;;;8.55;3.50;;;;;;;12.10;76.15;100200.78;1688997;85;28346;-68
2022/07/11 00:27:09;;;;;;;8.15;3.02;;;;;;;12.08;76.27;100201.67;1688950;84;33099;-68
2022/07/11 00:29:35;;;;;;;3.15;2.77;;;;;;;12.06;76.29;100203.34;1689002;85;25581;-68
2022/07/11 00:32:02;;;;;;;5.10;2.98;;;;;;;12.04;76.34;100192.03;1689126;85;26314;-67
2022/07/11 00:34:28;;;;;;;8.25;3.05;;;;;;;12.02;76.32;100194.81;1689236;85;25538;-67
2022/07/11 00:36:54;;;;;;;7.08;3.40;;;;;;;11.99;76.16;100192.20;1689137;85;27337;-67
2022/07/11 00:39:23;;;;;;;6.47;3.05;;;;;;;11.96;76.36;100198.25;1686780;84;33295;-67
2022/07/11 00:41:49;;;;;;;6.58;2.77;;;;;;;11.92;76.25;100194.60;1686948;84;25635;-67
2022/07/11 00:44:15;;;;;;;3.87;2.77;;;;;;;11.89;76.29;100198.70;1686698;85;25835;-67
2022/07/11 00:46:41;;;;;;;8.20;3.00;;;;;;;11.86;76.62;100197.20;1686815;85;25418;-67
2022/07/11 00:49:07;;;;;;;5.85;2.87;;;;;;;11.82;76.37;100191.62;1686750;84;28081;-67
2022/07/11 00:51:34;;;;;;;4.92;2.62;;;;;;;11.78;76.44;100192.82;1686650;85;25590;-68
2022/07/11 00:54:00;;;;;;;5.42;3.05;;;;;;;11.75;76.45;100200.23;1686623;84;25776;-68
2022/07/11 00:56:33;;;;;;;5.30;3.40;;;;;;;11.72;76.52;100196.01;1686692;84;25608;-67
2022/07/11 00:58:59;;;;;;;9.20;3.40;;;;;;;11.70;76.29;100198.24;1686192;84;25484;-66
2022/07/11 01:01:26;;;;;;;4.03;2.90;;;;;;;11.65;76.50;100192.42;1686301;85;27334;-67
2022/07/11 01:03:52;;;;;;;3.35;2.90;;;;;;;11.63;76.37;100187.88;1686368;85;25657;-67
2022/07/11 01:06:18;;;;;;;5.92;3.37;;;;;;;11.59;76.16;100186.37;1686625;84;25581;-67
2022/07/11 01:08:45;;;;;;;5.70;3.30;;;;;;;11.57;76.62;100189.14;1686709;84;25703;-67
2022/07/11 01:11:15;;;;;;;6.67;3.12;;;;;;;11.54;76.50;100190.59;1686707;84;25641;-67
2022/07/11 01:13:43;;;;;;;4.53;2.90;;;;;;;11.50;76.26;100192.89;1686632;85;27389;-67
2022/07/11 01:16:21;;;;;;;7.17;3.37;;;;;;;11.47;76.10;100197.02;1686576;84;25730;-67
2022/07/11 01:18:54;;;;;;;9.90;3.60;;;;;;;11.44;76.41;100195.50;1686780;84;25605;-66
2022/07/11 01:21:32;;;;;;;8.60;3.55;;;;;;;11.41;76.25;100198.30;1686648;84;26286;-67
2022/07/11 01:24:02;;;;;;;8.38;3.30;;;;;;;11.36;76.36;100193.03;1686699;85;25464;-67
2022/07/11 01:26:29;;;;;;;7.08;3.92;;;;;;;11.33;76.29;100197.72;1686660;84;27393;-66
2022/07/11 01:29:13;;;;;;;7.03;3.60;;;;;;;11.28;76.58;100193.25;1686579;84;25607;-66
2022/07/11 01:31:42;;;;;;;7.72;3.58;;;;;;;11.26;76.71;100201.46;1686672;84;25467;-67
2022/07/11 01:34:10;;;;;;;8.13;3.75;;;;;;;11.20;76.45;100199.44;1686617;84;25584;-67
2022/07/11 01:36:36;;;;;;;21.10;6.50;;;;;;;11.17;76.46;100198.17;1686699;85;25654;-67
2022/07/11 01:39:04;;;;;;;13.72;5.40;;;;;;;11.14;76.63;100199.36;1686678;85;26864;-67
2022/07/11 01:41:30;;;;;;;8.25;4.00;;;;;;;11.13;77.07;100198.54;1686587;84;25470;-67
2022/07/11 01:43:56;;;;;;;8.75;4.72;;;;;;;11.10;77.17;100192.42;1686617;85;25584;-67
2022/07/11 01:46:24;;;;;;;13.93;4.58;;;;;;;11.07;77.13;100195.75;1686714;84;25682;-67
2022/07/11 01:48:51;;;;;;;6.83;3.83;;;;;;;11.05;77.52;100187.70;1686697;85;25574;-67
2022/07/11 01:51:17;;;;;;;6.50;4.12;;;;;;;11.03;77.81;100193.42;1686646;85;27349;-67
2022/07/11 01:53:44;;;;;;;6.95;4.05;;;;;;;11.01;77.64;100193.73;1686559;85;25422;-67
2022/07/11 01:56:10;;;;;;;6.42;4.10;;;;;;;11.01;77.85;100182.91;1686577;84;30173;-67
2022/07/11 01:58:36;;;;;;;6.85;3.98;;;;;;;11.01;78.07;100183.47;1686607;85;25701;-67
2022/07/11 02:01:02;;;;;;;6.53;4.35;;;;;;;10.99;77.94;100183.78;1686669;84;25503;-67
2022/07/11 02:03:30;;;;;;;10.72;4.60;;;;;;;10.98;77.86;100178.14;1686689;84;26705;-67
2022/07/11 02:05:56;;;;;;;5.05;4.03;;;;;;;10.98;78.23;100176.79;1686618;85;33446;-67
2022/07/11 02:08:22;;;;;;;7.22;4.30;;;;;;;10.97;78.23;100173.83;1686563;84;25395;-67
2022/07/11 02:10:52;;;;;;;7.00;4.15;;;;;;;10.97;78.25;100173.05;1686682;84;25461;-67
2022/07/11 02:13:21;;;;;;;9.00;4.22;;;;;;;10.97;78.05;100171.12;1686624;84;25488;-67
2022/07/11 02:15:49;;;;;;;30.32;4.62;;;;;;;10.97;78.19;100177.10;1686730;85;27355;-67
2022/07/11 02:18:15;;;;;;;5.75;3.65;;;;;;;10.95;77.92;100175.27;1686471;84;25668;-67
2022/07/11 02:20:42;;;;;;;8.43;4.22;;;;;;;10.94;77.79;100173.66;1686647;84;25486;-67
2022/07/11 02:23:09;;;;;;;6.12;3.75;;;;;;;10.91;77.60;100174.28;1686620;85;25672;-67
2022/07/11 02:25:38;;;;;;;7.35;3.80;;;;;;;10.89;77.40;100178.66;1686656;84;25479;-66
2022/07/11 02:28:08;;;;;;;8.88;4.00;;;;;;;10.88;77.42;100181.67;1686568;85;27510;-67
2022/07/11 02:30:38;;;;;;;4.28;3.67;;;;;;;10.83;77.67;100178.01;1686546;85;25474;-67
2022/07/11 02:33:17;;;;;;;6.65;3.75;;;;;;;10.80;77.42;100169.72;1686608;84;25420;-67
2022/07/11 02:35:50;;;;;;;5.80;3.90;;;;;;;10.78;77.58;100170.59;1686159;85;25706;-65
2022/07/11 02:38:14;;;;;;;6.80;3.67;;;;;;;10.75;77.85;100170.66;1686236;85;25751;-67
2022/07/11 02:40:41;;;;;;;6.03;3.75;;;;;;;10.73;78.04;100174.80;1686661;84;27333;-68
2022/07/11 02:43:07;;;;;;;4.60;3.60;;;;;;;10.69;77.94;100175.95;1686546;85;25467;-69
2022/07/11 02:45:36;;;;;;;6.03;3.85;;;;;;;10.69;77.85;100180.01;1686580;85;25653;-69
2022/07/11 02:48:02;;;;;;;7.70;3.72;;;;;;;10.69;78.10;100181.36;1684484;84;25681;-66
2022/07/11 02:50:32;;;;;;;8.05;3.83;;;;;;;10.66;77.85;100173.89;1676562;85;25630;-67
2022/07/11 02:52:58;;;;;;;4.85;2.90;;;;;;;10.64;77.77;100190.44;1666283;85;28116;-67
2022/07/11 02:55:24;;;;;;;6.87;3.80;;;;;;;10.63;77.80;100186.13;1670327;84;33086;-67
2022/07/11 02:57:51;;;;;;;3.70;3.30;;;;;;;10.62;78.00;100189.14;1675064;85;25468;-67
2022/07/11 03:00:18;;;;;;;4.92;3.58;;;;;;;10.60;78.25;100192.71;1674988;85;25674;-67
2022/07/11 03:02:45;;;;;;;6.95;3.47;;;;;;;10.59;78.38;100200.57;1675056;85;25617;-67
2022/07/11 03:05:15;;;;;;;5.72;3.60;;;;;;;10.59;78.36;100204.62;1675040;84;27385;-67
2022/07/11 03:07:42;;;;;;;4.95;3.70;;;;;;;10.59;78.50;100204.62;1674964;85;25575;-67
2022/07/11 03:10:10;;;;;;;17.40;6.05;;;;;;;10.58;78.35;100203.84;1670621;85;25689;-67
2022/07/11 03:12:36;;;;;;;4.92;3.70;;;;;;;10.59;78.70;100206.80;1647865;85;26336;-67
2022/07/11 03:15:04;;;;;;;5.80;3.95;;;;;;;10.59;78.86;100200.03;1675064;85;25248;-67
2022/07/11 03:17:31;;;;;;;4.85;3.42;;;;;;;10.59;79.01;100196.52;1675016;85;27338;-67
2022/07/11 03:19:57;;;;;;;6.17;3.70;;;;;;;10.61;79.58;100197.02;1674978;85;25683;-67
2022/07/11 03:22:24;;;;;;;5.90;3.62;;;;;;;10.63;79.96;100196.15;1651995;85;25480;-67
2022/07/11 03:24:54;;;;;;;6.47;3.52;;;;;;;10.67;79.89;100193.05;1674982;85;26304;-67
2022/07/11 03:27:18;;;;;;;6.50;3.58;;;;;;;10.69;79.95;100193.53;1674203;85;25748;-67
2022/07/11 03:29:45;;;;;;;6.08;3.62;;;;;;;10.74;79.99;100199.38;1675009;85;28026;-67
2022/07/11 03:32:11;;;;;;;7.70;3.65;;;;;;;10.77;80.11;100194.13;1674966;85;25623;-67
2022/07/11 03:34:37;;;;;;;4.92;3.65;;;;;;;10.81;80.15;100193.77;1675074;85;25405;-67
2022/07/11 03:37:04;;;;;;;7.53;4.42;;;;;;;10.86;80.52;100193.37;1675004;84;25563;-67
2022/07/11 03:39:32;;;;;;;5.87;4.35;;;;;;;10.93;80.78;100201.29;1675050;85;25578;-67
2022/07/11 03:41:58;;;;;;;6.58;4.90;;;;;;;10.99;81.26;100194.61;1675017;85;27416;-67
2022/07/11 03:44:25;;;;;;;7.37;5.00;;;;;;;11.09;81.54;100201.64;1675161;85;25405;-67
2022/07/11 03:46:51;;;;;;;7.62;5.30;;;;;;;11.17;81.96;100202.23;1667487;86;25466;-67
2022/07/11 03:49:17;;;;;;;9.13;5.22;;;;;;;11.25;82.03;100200.64;1675228;85;25612;-67
2022/07/11 03:51:45;;;;;;;13.00;5.10;;;;;;;11.35;82.31;100192.78;1667479;86;25416;-67
2022/07/11 03:54:11;;;;;;;7.50;5.45;;;;;;;11.43;82.52;100192.00;1675302;85;27404;-67
2022/07/11 03:56:37;;;;;;;11.73;6.70;;;;;;;11.51;82.59;100193.11;1667456;85;25662;-67
2022/07/11 03:59:03;;;;;;;9.05;5.62;;;;;;;11.58;82.66;100205.08;1675273;85;29590;-67
2022/07/11 04:01:29;;;;;;;14.03;6.25;;;;;;;11.68;82.92;100199.91;1667503;86;25656;-67
2022/07/11 04:03:56;;;;;;;7.20;5.37;;;;;;;11.77;82.93;100209.40;1675358;85;25471;-67
2022/07/11 04:06:24;;;;;;;8.40;5.70;;;;;;;11.85;83.08;100206.43;1667435;86;27330;-67
2022/07/11 04:08:50;;;;;;;14.40;5.65;;;;;;;11.93;83.09;100207.81;1675138;84;25826;-67
2022/07/11 04:11:16;;;;;;;8.00;5.17;;;;;;;12.00;82.87;100198.41;1667430;86;25396;-67
2022/07/11 04:13:42;;;;;;;10.90;5.30;;;;;;;12.04;82.71;100196.09;1675200;85;26242;-67
2022/07/11 04:16:09;;;;;;;8.28;4.92;;;;;;;12.12;82.92;100194.48;1667418;86;25555;-67
2022/07/11 04:18:35;;;;;;;7.03;4.42;;;;;;;12.19;82.87;100190.73;1675222;85;27312;-67
2022/07/11 04:21:01;;;;;;;14.13;4.70;;;;;;;12.28;82.87;100192.08;1667396;86;25419;-67
2022/07/11 04:23:28;;;;;;;7.22;4.50;;;;;;;12.35;82.75;100192.94;1675249;85;25392;-67
2022/07/11 04:25:54;;;;;;;7.80;4.67;;;;;;;12.43;82.75;100194.27;1667403;86;25459;-67
2022/07/11 04:28:20;;;;;;;7.47;4.10;;;;;;;12.50;82.67;100190.48;1675346;84;25478;-67
2022/07/11 04:30:46;;;;;;;11.45;4.10;;;;;;;12.59;82.64;100195.09;1667475;86;27411;-68
2022/07/11 04:33:12;;;;;;;7.53;3.80;;;;;;;12.66;82.59;100188.59;1675088;85;25422;-68
2022/07/11 04:35:39;;;;;;;6.87;4.00;;;;;;;12.73;82.14;100192.95;1667491;86;25502;-68
2022/07/11 04:38:05;;;;;;;8.73;3.60;;;;;;;12.77;81.94;100190.38;1675247;85;26196;-68
2022/07/11 04:40:31;;;;;;;7.50;3.67;;;;;;;12.81;81.96;100189.41;1667490;86;25425;-66
2022/07/11 04:42:57;;;;;;;9.60;3.50;;;;;;;12.86;82.05;100191.94;1675218;83;27960;-68
2022/07/11 04:45:23;;;;;;;6.67;3.55;;;;;;;12.92;81.93;100188.47;1667303;86;25659;-68
2022/07/11 04:47:50;;;;;;;9.08;3.50;;;;;;;13.00;82.05;100184.14;1675331;83;25597;-66
2022/07/11 04:50:16;;;;;;;6.40;3.27;;;;;;;13.06;81.99;100188.27;1667401;86;25491;-66
2022/07/11 04:52:42;;;;;;;4.67;2.77;;;;;;;13.13;81.81;100186.37;1675221;85;25567;-67
2022/07/11 04:55:09;;;;;;;6.60;3.05;;;;;;;13.20;81.83;100189.38;1667416;86;27383;-67
2022/07/11 04:57:35;;;;;;;4.90;3.02;;;;;;;13.23;81.44;100182.73;1674278;83;25649;-67
2022/07/11 05:00:05;;;;;;;5.95;3.12;;;;;;;13.31;81.14;100182.99;1688607;85;25479;-68
2022/07/11 05:02:32;;;;;;;6.47;3.47;;;;;;;13.33;80.81;100179.41;1701614;82;26274;-68
2022/07/11 05:04:58;;;;;;;9.95;2.85;;;;;;;13.32;80.45;100189.48;1696292;84;25412;-68
2022/07/11 05:07:24;;;;;;;7.10;2.92;;;;;;;13.36;80.60;100195.05;1701610;84;28101;-68
2022/07/11 05:09:50;;;;;;;7.95;2.80;;;;;;;13.40;80.61;100201.41;1701427;84;25569;-68
2022/07/11 05:12:16;;;;;;;3.47;2.85;;;;;;;13.45;80.72;100205.31;1701644;84;25402;-69
2022/07/11 05:14:42;;;;;;;8.35;2.98;;;;;;;13.52;80.81;100206.13;1701558;84;25660;-69
2022/07/11 05:17:08;;;;;;;6.37;2.62;;;;;;;13.62;81.34;100212.52;1696280;84;25478;-69
2022/07/11 05:19:35;;;;;;;4.85;3.15;;;;;;;13.70;81.60;100206.23;1701526;84;28058;-69
2022/07/11 05:22:04;;;;;;;10.95;3.25;;;;;;;13.81;81.25;100202.56;1701418;84;25395;-69
2022/07/11 05:24:31;;;;;;;4.55;2.40;;;;;;;13.87;81.09;100210.73;1701536;84;25484;-69
2022/07/11 05:26:57;;;;;;;6.10;2.60;;;;;;;13.94;80.54;100207.48;1701536;84;25677;-69
2022/07/11 05:29:23;;;;;;;7.05;3.00;;;;;;;14.02;80.91;100209.33;1696213;84;25655;-69
2022/07/11 05:31:52;;;;;;;6.50;3.12;;;;;;;14.09;80.67;100213.66;1688383;85;27404;-69
2022/07/11 05:34:19;;;;;;;6.00;3.17;;;;;;;14.16;80.68;100213.90;1690810;84;25603;-69
2022/07/11 05:36:47;;;;;;;5.42;2.87;;;;;;;14.24;80.39;100220.97;1678653;84;25597;-68
2022/07/11 05:39:15;;;;;;;5.50;2.90;;;;;;;14.29;80.24;100218.83;1670708;85;25816;-68
2022/07/11 05:41:41;;;;;;;6.42;2.77;;;;;;;14.36;80.13;100221.00;1679236;83;25628;-68
2022/07/11 05:44:07;;;;;;;6.55;2.83;;;;;;;14.42;79.96;100219.67;1674359;84;27599;-67
2022/07/11 05:46:33;;;;;;;8.18;3.40;;;;;;;14.45;79.71;100216.83;1683177;84;33798;-67
2022/07/11 05:48:59;;;;;;;7.37;3.30;;;;;;;14.51;79.88;100222.30;1678550;84;25691;-68
2022/07/11 05:51:25;;;;;;;15.88;9.25;;;;;;;14.55;79.46;100224.56;1676299;85;27816;-68
2022/07/11 05:53:51;;;;;;;9.75;3.58;;;;;;;14.57;79.17;100227.73;1676684;83;25526;-68
2022/07/11 05:56:18;;;;;;;8.40;4.10;;;;;;;14.61;79.31;100226.52;1673379;84;27747;-68
2022/07/11 05:58:45;;;;;;;10.30;3.65;;;;;;;14.68;79.24;100220.76;1667104;86;25492;-68
2022/07/11 06:01:11;;;;;;;6.60;3.15;;;;;;;14.73;79.31;100224.63;1667024;86;25671;-68
2022/07/11 06:03:37;;;;;;;4.40;2.77;;;;;;;14.79;79.36;100223.83;1667216;86;25635;-68
2022/07/11 06:06:06;;;;;;;7.20;3.30;;;;;;;14.85;79.23;100222.48;1654261;86;25480;-69
2022/07/11 06:08:40;;;;;;;6.58;3.42;;;;;;;14.94;79.59;100228.60;1663658;85;28233;-68
2022/07/11 06:11:12;;;;;;;8.95;3.33;;;;;;;15.05;79.20;100228.15;1661055;85;25576;-68
2022/07/11 06:13:41;;;;;;;7.00;3.10;;;;;;;15.13;78.76;100227.25;1662226;85;25738;-69
2022/07/11 06:16:08;;;;;;;8.88;3.60;;;;;;;15.18;78.28;100224.29;1656669;85;26500;-69
2022/07/11 06:18:36;;;;;;;7.92;4.08;;;;;;;15.26;78.12;100223.96;1662381;85;25758;-69
2022/07/11 06:21:03;;;;;;;13.22;3.58;;;;;;;15.29;77.55;100224.06;1664968;85;27334;-69
2022/07/11 06:23:29;;;;;;;10.20;3.58;;;;;;;15.39;77.91;100230.17;1664155;85;25637;-69
2022/07/11 06:25:57;;;;;;;10.20;3.90;;;;;;;15.45;77.32;100231.54;1662635;85;25418;-69
2022/07/11 06:28:23;;;;;;;9.13;3.47;;;;;;;15.48;77.08;100230.28;1658918;85;26433;-69
2022/07/11 06:30:50;;;;;;;8.53;3.75;;;;;;;15.57;77.44;100234.23;1664374;85;25760;-69
2022/07/11 06:33:18;;;;;;;8.35;4.10;;;;;;;15.67;77.29;100241.94;1664065;85;27394;-69
2022/07/11 06:35:45;;;;;;;11.73;7.42;;;;;;;15.67;76.04;100231.03;1665855;85;25401;-68
2022/07/11 06:38:16;;;;;;;13.25;5.87;;;;;;;15.73;76.46;100233.52;1668289;85;25700;-68
2022/07/11 06:40:43;;;;;;;9.45;5.10;;;;;;;15.79;76.26;100234.91;1661084;85;25730;-68
2022/07/11 06:43:10;;;;;;;8.45;3.55;;;;;;;15.81;75.95;100233.41;1660257;85;25490;-67
2022/07/11 06:45:37;;;;;;;10.28;3.37;;;;;;;15.86;75.62;100229.06;1663893;85;27337;-68
2022/07/11 06:48:05;;;;;;;5.40;2.90;;;;;;;15.89;75.26;100233.63;1662627;85;25858;-68
2022/07/11 06:50:32;;;;;;;5.90;3.22;;;;;;;15.91;74.69;100229.98;1662852;85;25692;-68
2022/07/11 06:52:59;;;;;;;6.87;3.10;;;;;;;15.94;74.83;100229.30;1660688;85;26482;-68
2022/07/11 06:55:26;;;;;;;5.08;2.55;;;;;;;15.97;74.20;100234.03;1657865;86;25668;-68
2022/07/11 06:57:52;;;;;;;4.72;2.83;;;;;;;15.97;73.84;100232.67;1669914;85;27533;-69
2022/07/11 07:00:18;;;;;;;5.00;2.83;;;;;;;15.97;73.76;100232.67;1672239;85;25971;-68
2022/07/11 07:02:45;;;;;;;6.78;2.60;;;;;;;15.97;73.53;100234.84;1694703;83;25724;-68
2022/07/11 07:05:12;;;;;;;7.50;3.05;;;;;;;15.98;73.62;100230.96;1671902;84;25644;-68
2022/07/11 07:07:39;;;;;;;4.05;2.33;;;;;;;16.02;72.94;100235.16;1694686;84;25616;-68
2022/07/11 07:10:07;;;;;;;6.87;2.20;;;;;;;15.98;72.54;100230.96;1672051;85;25808;-68
2022/07/11 07:12:39;;;;;;;5.05;2.58;;;;;;;15.97;72.53;100230.76;1694080;83;25720;-68
2022/07/11 07:15:07;;;;;;;6.25;3.15;;;;;;;15.97;72.43;100231.30;1671275;85;25433;-68
2022/07/11 07:17:33;;;;;;;8.63;4.12;;;;;;;15.97;72.63;100236.77;1694488;84;26290;-69
2022/07/11 07:19:59;;;;;;;8.85;5.25;;;;;;;15.98;72.39;100230.96;1671898;85;25402;-68
2022/07/11 07:22:25;;;;;;;10.82;6.50;;;;;;;15.95;72.46;100228.14;1694624;84;27430;-69
2022/07/11 07:24:51;;;;;;;8.88;6.10;;;;;;;15.95;72.67;100222.10;1671939;85;25990;-68
2022/07/11 07:27:17;;;;;;;12.50;7.17;;;;;;;16.03;73.17;100229.93;1694358;84;25593;-69
2022/07/11 07:29:43;;;;;;;10.48;6.40;;;;;;;16.10;73.21;100229.34;1671932;84;25666;-68
2022/07/11 07:32:09;;;;;;;9.60;6.87;;;;;;;16.19;73.45;100228.05;1694530;84;25752;-69
2022/07/11 07:34:36;;;;;;;12.60;6.53;;;;;;;16.29;73.41;100224.00;1672045;84;27346;-69
2022/07/11 07:37:02;;;;;;;10.32;6.08;;;;;;;16.35;72.91;100232.17;1694064;84;25878;-69
2022/07/11 07:39:28;;;;;;;9.30;6.45;;;;;;;16.40;72.57;100226.45;1683203;84;25716;-69
2022/07/11 07:41:54;;;;;;;9.35;7.08;;;;;;;16.44;72.22;100230.64;1694064;84;25659;-69
2022/07/11 07:44:20;;;;;;;9.00;6.62;;;;;;;16.47;71.75;100229.16;1671829;84;25751;-69
2022/07/11 07:46:46;;;;;;;9.83;6.25;;;;;;;16.39;71.13;100231.68;1694656;84;27516;-69
2022/07/11 07:49:13;;;;;;;7.05;6.08;;;;;;;16.35;70.88;100227.29;1671980;85;25676;-69
2022/07/11 07:51:39;;;;;;;8.58;5.95;;;;;;;16.28;70.62;100229.26;1694362;83;25512;-69
2022/07/11 07:54:05;;;;;;;7.12;6.42;;;;;;;16.22;70.76;100223.23;1683782;85;26495;-68
2022/07/11 07:56:31;;;;;;;9.30;6.58;;;;;;;16.17;70.91;100224.07;1692202;84;25749;-68
2022/07/11 07:58:58;;;;;;;8.25;6.92;;;;;;;16.09;70.62;100225.01;1667081;86;29578;-68
2022/07/11 08:01:35;;;;;;;7.85;6.20;;;;;;;16.01;70.89;100227.55;1674948;84;25539;-68
2022/07/11 08:04:09;;;;;;;10.23;6.85;;;;;;;15.95;70.87;100219.38;1667267;84;25635;-70
2022/07/11 08:06:36;;;;;;;9.58;6.15;;;;;;;15.83;70.95;100224.33;1674966;85;25693;-69
2022/07/11 08:09:04;;;;;;;10.82;7.20;;;;;;;15.76;71.22;100226.05;1667266;86;25648;-68
2022/07/11 08:11:31;;;;;;;10.13;6.97;;;;;;;15.71;71.57;100232.50;1675377;84;27272;-68
2022/07/11 08:13:58;;;;;;;9.15;7.05;;;;;;;15.65;72.07;100226.50;1667039;86;25814;-68
2022/07/11 08:16:24;;;;;;;10.95;7.53;;;;;;;15.60;72.17;100234.13;1675248;85;25492;-68
2022/07/11 08:18:53;;;;;;;9.68;6.67;;;;;;;15.54;72.38;100232.77;1691248;84;25671;-69
2022/07/11 08:21:19;;;;;;;12.60;7.12;;;;;;;15.50;72.82;100232.66;1717599;83;26037;-69
2022/07/11 08:23:45;;;;;;;10.03;7.17;;;;;;;15.44;72.98;100232.66;1720850;83;29588;-69
2022/07/11 08:26:11;;;;;;;14.55;7.58;;;;;;;15.38;73.22;100234.05;1721129;83;25596;-69
2022/07/11 08:28:39;;;;;;;11.22;6.83;;;;;;;15.33;73.41;100235.07;1702708;83;25371;-69
2022/07/11 08:31:05;;;;;;;11.00;7.37;;;;;;;15.29;73.59;100234.18;1679552;84;25649;-67
2022/07/11 08:33:31;;;;;;;10.90;7.45;;;;;;;15.26;73.94;100234.86;1674108;85;25652;-67
2022/07/11 08:35:58;;;;;;;8.83;6.97;;;;;;;15.26;74.22;100236.22;1677110;84;27129;-68
2022/07/11 08:38:24;;;;;;;11.73;7.47;;;;;;;15.27;74.56;100230.43;1674142;84;25803;-69
2022/07/11 08:40:51;;;;;;;11.75;7.92;;;;;;;15.31;74.74;100231.33;1678521;84;25495;-68
2022/07/11 08:43:25;;;;;;;10.93;8.08;;;;;;;15.39;75.12;100232.35;1685256;84;26638;-68
2022/07/11 08:45:52;;;;;;;10.78;7.95;;;;;;;15.57;76.49;100236.17;1677880;84;25471;-68
2022/07/11 08:48:20;;;;;;;10.50;8.18;;;;;;;15.85;76.60;100234.87;1674159;85;27310;-68
2022/07/11 08:50:47;;;;;;;9.10;7.55;;;;;;;16.10;76.01;100225.25;1677744;84;25810;-68
2022/07/11 08:53:14;;;;;;;9.98;7.83;;;;;;;16.26;75.41;100222.00;1691214;84;25572;-68
2022/07/11 08:55:40;;;;;;;9.28;7.10;;;;;;;16.30;74.30;100227.55;1691157;84;25622;-68
2022/07/11 08:58:09;;;;;;;8.78;7.50;;;;;;;16.32;74.25;100226.62;1688992;83;25735;-69
2022/07/11 09:00:36;;;;;;;12.03;7.70;;;;;;;16.35;73.75;100227.29;1692405;84;27388;-68
2022/07/11 09:03:03;;;;;;;13.00;8.20;;;;;;;16.35;73.36;100231.39;1692405;84;25807;-69
2022/07/11 09:05:32;;;;;;;17.73;7.92;;;;;;;16.35;73.36;100233.53;1692237;84;25590;-68
2022/07/11 09:08:01;;;;;;;9.08;7.22;;;;;;;16.34;73.39;100231.16;1692585;84;25808;-68
2022/07/11 09:10:27;;;;;;;12.50;7.70;;;;;;;16.35;73.24;100235.48;1692543;84;25682;-68
2022/07/11 09:13:10;;;;;;;10.82;8.23;;;;;;;16.37;73.10;100234.55;1690799;84;27314;-67
2022/07/11 09:15:47;;;;;;;12.20;8.03;;;;;;;16.36;73.25;100237.05;1692379;84;25671;-68
2022/07/11 09:18:37;;;;;;;9.30;8.00;;;;;;;16.38;73.20;100234.20;1692574;84;25788;-68
2022/07/11 09:26:46;;;;;;;6.80;5.77;;;;;;;17.07;75.88;100225.79;1680329;85;26956;-67
2022/07/11 09:29:24;;;;;;;4.75;4.20;;;;;;;17.70;76.35;100222.69;1670998;85;26232;-67
2022/07/11 09:31:51;;;;;;;4.90;2.67;;;;;;;18.17;74.64;100218.19;1671248;85;25711;-70
2022/07/11 09:34:20;;;;;;;1.87;1.77;;;;;;;18.67;72.97;100217.70;1691008;84;25769;-69
2022/07/11 09:36:55;;;;;;;2.77;1.30;;;;;;;19.44;73.81;100217.72;1671535;84;25724;-70
2022/07/11 09:39:28;;;;;;;3.00;1.50;;;;;;;20.11;69.72;100214.27;1681825;85;27612;-67
2022/07/11 09:41:56;;;;;;;1.40;0.90;;;;;;;20.37;68.13;100216.09;1688298;84;25645;-66
2022/07/11 09:44:31;;;;;;;3.00;0.78;;;;;;;20.99;67.14;100211.94;1680415;84;25461;-68
2022/07/11 09:46:57;;;;;;;3.40;0.50;;;;;;;21.60;65.66;100216.46;1688923;84;25700;-68
2022/07/11 09:49:38;;;;;;;0.90;0.60;;;;;;;22.27;63.08;100217.07;1680103;84;25597;-67
2022/07/11 09:52:14;;;;;;;2.40;0.65;;;;;;;22.60;61.13;100213.82;1690308;84;27427;-68
2022/07/11 09:54:57;;;;;;;0.72;0.40;;;;;;;23.11;60.46;100211.26;1670102;85;25805;-69
2022/07/11 09:57:39;;;;;;;2.87;0.50;;;;;;;23.74;59.97;100211.47;1642683;86;25755;-70
2022/07/11 10:00:09;;;;;;;0.72;0.40;;;;;;;24.46;58.51;100215.23;1669422;85;26450;-69
2022/07/11 10:02:36;;;;;;;1.10;0.30;;;;;;;25.27;56.80;100201.14;1669382;85;25656;-66
2022/07/11 10:05:04;;;;;;;0.78;0.40;;;;;;;25.80;54.61;100205.86;1645003;86;27383;-68
2022/07/11 10:07:31;;;;;;;2.08;0.60;;;;;;;26.12;52.53;100207.45;1646265;86;25767;-68
2022/07/11 10:10:00;;;;;;;0.72;0.25;;;;;;;26.37;50.64;100195.97;1656926;85;25864;-69
2022/07/11 10:12:29;;;;;;;0.53;0.30;;;;;;;26.54;48.96;100196.89;1665173;85;35051;-68
2022/07/11 10:14:57;;;;;;;2.72;0.40;;;;;;;26.80;48.71;100186.99;1663324;85;25807;-68
2022/07/11 10:18:01;;;;;;;0.98;0.40;;;;;;;27.15;48.12;100187.53;1663277;85;28067;-66
2022/07/11 10:20:59;;;;;;;2.37;0.40;;;;;;;27.28;46.34;100199.42;1675921;84;25855;-67
2022/07/11 10:23:58;;;;;;;0.72;0.42;;;;;;;27.05;45.56;100192.69;1669867;85;25703;-68
2022/07/11 10:26:34;;;;;;;2.65;0.50;;;;;;;27.14;44.96;100192.13;1594058;89;26776;-70
2022/07/11 10:29:17;;;;;;;0.62;0.40;;;;;;;26.74;44.01;100192.83;1580536;89;25770;-69
2022/07/11 10:32:08;;;;;;;2.67;0.50;;;;;;;26.34;43.85;100185.73;1581985;89;29518;-69
2022/07/11 10:34:35;;;;;;;1.40;0.37;;;;;;;26.07;44.00;100194.06;1584628;89;25773;-67
2022/07/11 10:37:07;;;;;;;0.45;0.40;;;;;;;25.91;43.92;100191.28;1570605;90;25731;-69
2022/07/11 10:39:37;;;;;;;1.10;0.40;;;;;;;26.02;44.61;100189.77;1582636;89;25782;-69
2022/07/11 10:42:05;;;;;;;;;;;;;;;26.16;43.77;100194.31;1575308;90;25433;-70
2022/07/11 10:44:56;;;;;;;1.67;0.40;;;;;;;26.14;43.67;100187.63;1582013;89;27409;-68
2022/07/11 10:47:38;;;;;;;1.30;0.40;;;;;;;26.49;44.27;100184.89;1585202;89;25750;-67
2022/07/11 10:50:25;;;;;;;0.28;0.20;;;;;;;26.83;42.85;100177.02;1581615;89;25822;-69
2022/07/11 10:52:55;;;;;;;1.82;0.50;;;;;;;26.72;42.20;100182.77;1568388;90;26361;-70
2022/07/11 10:55:40;;;;;;;2.12;1.37;;;;;;;26.43;41.63;100181.05;1587517;89;25794;-67
2022/07/11 10:58:31;;;;;;;1.47;0.68;;;;;;;26.03;41.75;100178.88;1584182;89;27420;-68
2022/07/11 11:01:16;;;;;;;2.47;0.35;;;;;;;25.67;41.18;100179.30;1591784;89;25580;-67
2022/07/11 11:03:44;;;;;;;2.40;0.57;;;;;;;25.09;40.81;100182.52;1682477;84;25467;-66
2022/07/11 11:06:13;;;;;;;5.08;1.02;;;;;;;24.61;41.83;100193.22;1685373;84;26158;-69
2022/07/11 11:08:46;;;;;;;1.25;0.53;;;;;;;24.36;43.03;100189.23;1683838;84;25705;-70
2022/07/11 11:11:35;;;;;;;0.45;0.40;;;;;;;24.56;43.83;100189.52;1679654;84;28069;-69
2022/07/11 11:14:19;;;;;;;2.27;0.50;;;;;;;25.12;44.36;100189.41;1673662;84;26172;-68
2022/07/11 11:16:47;;;;;;;0.80;0.55;;;;;;;25.60;43.45;100184.16;1659924;86;25640;-69
2022/07/11 11:19:50;;;;;;;0.42;0.42;;;;;;;26.15;43.28;100181.64;1671758;85;26157;-70
2022/07/11 11:22:19;;;;;;;0.80;0.30;;;;;;;26.62;42.28;100189.25;1655413;86;25395;-69
2022/07/11 11:24:48;;;;;;;1.17;0.35;;;;;;;27.21;39.73;100185.84;1672809;85;27438;-69
2022/07/11 11:27:21;;;;;;;1.95;0.50;;;;;;;27.21;39.73;100185.84;1655577;86;25835;-68
2022/07/11 11:29:52;;;;;;;1.05;0.50;;;;;;;26.81;38.43;100184.99;1672523;85;25696;-69
2022/07/11 11:32:19;;;;;;;0.62;0.37;;;;;;;26.30;38.51;100186.99;1655097;86;25617;-69
2022/07/11 11:34:46;;;;;;;0.68;0.50;;;;;;;25.91;38.66;100187.70;1672404;85;25765;-69
2022/07/11 11:37:17;;;;;;;1.72;0.60;;;;;;;25.51;39.11;100191.59;1655405;86;27321;-67